sensor_id;sensor_type;location;lat;lon;timestamp;P1;durP1;ratioP1;P2;durP2;ratioP2
10979;SDS011;5543;51.734;8.744;2022-11-30T00:01:07;11.93;;;5.95;;
10979;SDS011;5543;51.734;8.744;2022-11-30T00:03:36;11.65;;;5.53;;
10979;SDS011;5543;51.734;8.744;2022-11-30T00:06:05;15.45;;;5.05;;
10979;SDS011;5543;51.734;8.744;2022-11-30T00:08:34;13.38;;;5.30;;
10979;SDS011;5543;51.734;8.744;2022-11-30T00:11:07;15.27;;;6.40;;
10979;SDS011;5543;51.734;8.744;2022-11-30T00:13:37;17.52;;;6.10;;
10979;SDS011;5543;51.734;8.744;2022-11-30T00:16:05;10.82;;;5.75;;
10979;SDS011;5543;51.734;8.744;2022-11-30T00:18:34;12.13;;;5.40;;
10979;SDS011;5543;51.734;8.744;2022-11-30T00:21:02;18.92;;;6.07;;
10979;SDS011;5543;51.734;8.744;2022-11-30T00:23:34;12.82;;;5.82;;
10979;SDS011;5543;51.734;8.744;2022-11-30T00:26:04;12.20;;;5.25;;
10979;SDS011;5543;51.734;8.744;2022-11-30T00:28:35;16.48;;;6.93;;
10979;SDS011;5543;51.734;8.744;2022-11-30T00:31:04;14.18;;;5.57;;
10979;SDS011;5543;51.734;8.744;2022-11-30T00:33:34;11.80;;;5.93;;
10979;SDS011;5543;51.734;8.744;2022-11-30T00:36:04;12.68;;;6.82;;
10979;SDS011;5543;51.734;8.744;2022-11-30T00:38:34;10.32;;;5.55;;
10979;SDS011;5543;51.734;8.744;2022-11-30T00:41:02;16.40;;;4.68;;
10979;SDS011;5543;51.734;8.744;2022-11-30T00:43:30;10.48;;;5.75;;
10979;SDS011;5543;51.734;8.744;2022-11-30T00:46:00;12.00;;;5.68;;
10979;SDS011;5543;51.734;8.744;2022-11-30T00:48:29;13.23;;;5.80;;
10979;SDS011;5543;51.734;8.744;2022-11-30T00:50:57;12.02;;;6.18;;
10979;SDS011;5543;51.734;8.744;2022-11-30T00:53:25;10.35;;;5.22;;
10979;SDS011;5543;51.734;8.744;2022-11-30T00:55:53;17.75;;;6.53;;
10979;SDS011;5543;51.734;8.744;2022-11-30T00:58:22;10.75;;;4.63;;
10979;SDS011;5543;51.734;8.744;2022-11-30T01:00:50;12.68;;;5.25;;
10979;SDS011;5543;51.734;8.744;2022-11-30T01:03:20;18.70;;;5.60;;
10979;SDS011;5543;51.734;8.744;2022-11-30T01:05:48;13.05;;;6.35;;
10979;SDS011;5543;51.734;8.744;2022-11-30T01:08:16;16.55;;;6.85;;
10979;SDS011;5543;51.734;8.744;2022-11-30T01:10:45;11.00;;;4.50;;
10979;SDS011;5543;51.734;8.744;2022-11-30T01:13:18;11.77;;;6.15;;
10979;SDS011;5543;51.734;8.744;2022-11-30T01:15:46;16.35;;;6.45;;
10979;SDS011;5543;51.734;8.744;2022-11-30T01:18:14;10.10;;;5.68;;
10979;SDS011;5543;51.734;8.744;2022-11-30T01:20:44;16.10;;;5.50;;
10979;SDS011;5543;51.734;8.744;2022-11-30T01:23:12;9.57;;;4.47;;
10979;SDS011;5543;51.734;8.744;2022-11-30T01:25:40;12.10;;;5.65;;
10979;SDS011;5543;51.734;8.744;2022-11-30T01:28:08;11.32;;;5.35;;
10979;SDS011;5543;51.734;8.744;2022-11-30T01:30:37;10.68;;;5.47;;
10979;SDS011;5543;51.734;8.744;2022-11-30T01:33:05;15.02;;;6.07;;
10979;SDS011;5543;51.734;8.744;2022-11-30T01:35:33;13.57;;;6.28;;
10979;SDS011;5543;51.734;8.744;2022-11-30T01:38:03;14.10;;;5.15;;
10979;SDS011;5543;51.734;8.744;2022-11-30T01:40:31;14.93;;;5.68;;
10979;SDS011;5543;51.734;8.744;2022-11-30T01:42:59;13.93;;;6.68;;
10979;SDS011;5543;51.734;8.744;2022-11-30T01:45:27;12.90;;;6.03;;
10979;SDS011;5543;51.734;8.744;2022-11-30T01:47:55;11.60;;;5.30;;
10979;SDS011;5543;51.734;8.744;2022-11-30T01:50:24;13.93;;;5.93;;
10979;SDS011;5543;51.734;8.744;2022-11-30T01:52:56;12.82;;;5.07;;
10979;SDS011;5543;51.734;8.744;2022-11-30T01:55:27;11.93;;;4.82;;
10979;SDS011;5543;51.734;8.744;2022-11-30T01:57:59;13.30;;;5.80;;
10979;SDS011;5543;51.734;8.744;2022-11-30T02:00:31;10.20;;;5.47;;
10979;SDS011;5543;51.734;8.744;2022-11-30T02:03:01;9.90;;;5.45;;
10979;SDS011;5543;51.734;8.744;2022-11-30T02:05:33;12.93;;;4.57;;
10979;SDS011;5543;51.734;8.744;2022-11-30T02:08:04;13.10;;;5.40;;
10979;SDS011;5543;51.734;8.744;2022-11-30T02:10:35;10.27;;;5.40;;
10979;SDS011;5543;51.734;8.744;2022-11-30T02:13:22;9.52;;;4.97;;
10979;SDS011;5543;51.734;8.744;2022-11-30T02:16:01;14.77;;;4.85;;
10979;SDS011;5543;51.734;8.744;2022-11-30T02:18:38;7.00;;;3.63;;
10979;SDS011;5543;51.734;8.744;2022-11-30T02:21:16;12.48;;;5.68;;
10979;SDS011;5543;51.734;8.744;2022-11-30T02:23:53;15.23;;;4.88;;
10979;SDS011;5543;51.734;8.744;2022-11-30T02:26:53;10.05;;;4.93;;
10979;SDS011;5543;51.734;8.744;2022-11-30T02:29:32;9.57;;;4.13;;
10979;SDS011;5543;51.734;8.744;2022-11-30T02:32:03;10.18;;;4.65;;
10979;SDS011;5543;51.734;8.744;2022-11-30T02:34:35;12.05;;;5.10;;
10979;SDS011;5543;51.734;8.744;2022-11-30T02:37:05;11.60;;;5.82;;
10979;SDS011;5543;51.734;8.744;2022-11-30T02:39:35;9.65;;;4.65;;
10979;SDS011;5543;51.734;8.744;2022-11-30T02:42:04;12.48;;;4.55;;
10979;SDS011;5543;51.734;8.744;2022-11-30T02:44:38;7.35;;;4.40;;
10979;SDS011;5543;51.734;8.744;2022-11-30T02:47:10;11.85;;;4.38;;
10979;SDS011;5543;51.734;8.744;2022-11-30T02:49:44;9.98;;;4.70;;
10979;SDS011;5543;51.734;8.744;2022-11-30T02:52:16;8.80;;;4.72;;
10979;SDS011;5543;51.734;8.744;2022-11-30T02:54:47;10.68;;;3.88;;
10979;SDS011;5543;51.734;8.744;2022-11-30T02:57:16;8.10;;;3.92;;
10979;SDS011;5543;51.734;8.744;2022-11-30T02:59:45;11.90;;;4.55;;
10979;SDS011;5543;51.734;8.744;2022-11-30T03:02:13;7.97;;;4.13;;
10979;SDS011;5543;51.734;8.744;2022-11-30T03:04:41;10.10;;;4.72;;
10979;SDS011;5543;51.734;8.744;2022-11-30T03:07:10;8.70;;;4.68;;
10979;SDS011;5543;51.734;8.744;2022-11-30T03:09:38;8.77;;;3.85;;
10979;SDS011;5543;51.734;8.744;2022-11-30T03:12:06;11.35;;;3.97;;
10979;SDS011;5543;51.734;8.744;2022-11-30T03:14:34;14.90;;;4.43;;
10979;SDS011;5543;51.734;8.744;2022-11-30T03:17:04;9.25;;;4.55;;
10979;SDS011;5543;51.734;8.744;2022-11-30T03:19:32;9.07;;;4.38;;
10979;SDS011;5543;51.734;8.744;2022-11-30T03:22:01;10.25;;;4.13;;
10979;SDS011;5543;51.734;8.744;2022-11-30T03:24:29;10.18;;;4.57;;
10979;SDS011;5543;51.734;8.744;2022-11-30T03:26:57;15.65;;;6.53;;
10979;SDS011;5543;51.734;8.744;2022-11-30T03:29:25;13.40;;;5.18;;
10979;SDS011;5543;51.734;8.744;2022-11-30T03:31:53;11.18;;;4.78;;
10979;SDS011;5543;51.734;8.744;2022-11-30T03:34:23;9.73;;;4.50;;
10979;SDS011;5543;51.734;8.744;2022-11-30T03:36:52;11.55;;;4.90;;
10979;SDS011;5543;51.734;8.744;2022-11-30T03:39:21;14.70;;;4.88;;
10979;SDS011;5543;51.734;8.744;2022-11-30T03:41:50;17.20;;;6.10;;
10979;SDS011;5543;51.734;8.744;2022-11-30T03:44:18;12.00;;;4.65;;
10979;SDS011;5543;51.734;8.744;2022-11-30T03:46:47;7.32;;;4.53;;
10979;SDS011;5543;51.734;8.744;2022-11-30T03:49:15;12.07;;;4.90;;
10979;SDS011;5543;51.734;8.744;2022-11-30T03:51:44;10.73;;;4.47;;
10979;SDS011;5543;51.734;8.744;2022-11-30T03:54:12;10.68;;;5.18;;
10979;SDS011;5543;51.734;8.744;2022-11-30T03:56:40;8.90;;;4.68;;
10979;SDS011;5543;51.734;8.744;2022-11-30T03:59:08;7.68;;;3.90;;
10979;SDS011;5543;51.734;8.744;2022-11-30T04:01:37;8.50;;;4.00;;
10979;SDS011;5543;51.734;8.744;2022-11-30T04:04:06;15.70;;;4.13;;
10979;SDS011;5543;51.734;8.744;2022-11-30T04:06:34;7.63;;;3.60;;
10979;SDS011;5543;51.734;8.744;2022-11-30T04:09:04;12.25;;;4.47;;
10979;SDS011;5543;51.734;8.744;2022-11-30T04:11:32;10.52;;;4.38;;
10979;SDS011;5543;51.734;8.744;2022-11-30T04:14:01;9.25;;;4.07;;
10979;SDS011;5543;51.734;8.744;2022-11-30T04:16:29;9.27;;;4.55;;
10979;SDS011;5543;51.734;8.744;2022-11-30T04:18:57;7.93;;;3.97;;
10979;SDS011;5543;51.734;8.744;2022-11-30T04:21:25;10.25;;;4.72;;
10979;SDS011;5543;51.734;8.744;2022-11-30T04:23:53;10.13;;;3.83;;
10979;SDS011;5543;51.734;8.744;2022-11-30T04:26:23;13.05;;;5.03;;
10979;SDS011;5543;51.734;8.744;2022-11-30T04:28:51;9.23;;;4.05;;
10979;SDS011;5543;51.734;8.744;2022-11-30T04:31:19;8.52;;;4.38;;
10979;SDS011;5543;51.734;8.744;2022-11-30T04:33:49;6.95;;;4.32;;
10979;SDS011;5543;51.734;8.744;2022-11-30T04:36:19;7.78;;;3.65;;
10979;SDS011;5543;51.734;8.744;2022-11-30T04:38:48;9.30;;;3.70;;
10979;SDS011;5543;51.734;8.744;2022-11-30T04:41:16;9.95;;;3.95;;
10979;SDS011;5543;51.734;8.744;2022-11-30T04:43:45;8.13;;;3.33;;
10979;SDS011;5543;51.734;8.744;2022-11-30T04:46:13;6.43;;;3.38;;
10979;SDS011;5543;51.734;8.744;2022-11-30T04:48:41;8.98;;;3.90;;
10979;SDS011;5543;51.734;8.744;2022-11-30T04:51:10;12.50;;;4.53;;
10979;SDS011;5543;51.734;8.744;2022-11-30T04:53:38;14.27;;;5.05;;
10979;SDS011;5543;51.734;8.744;2022-11-30T04:56:06;10.20;;;4.03;;
10979;SDS011;5543;51.734;8.744;2022-11-30T04:58:35;11.95;;;5.43;;
10979;SDS011;5543;51.734;8.744;2022-11-30T05:01:06;13.30;;;4.57;;
10979;SDS011;5543;51.734;8.744;2022-11-30T05:03:34;8.77;;;4.38;;
10979;SDS011;5543;51.734;8.744;2022-11-30T05:06:03;8.43;;;3.85;;
10979;SDS011;5543;51.734;8.744;2022-11-30T05:08:31;8.20;;;4.03;;
10979;SDS011;5543;51.734;8.744;2022-11-30T05:10:59;13.02;;;4.93;;
10979;SDS011;5543;51.734;8.744;2022-11-30T05:13:27;7.90;;;3.45;;
10979;SDS011;5543;51.734;8.744;2022-11-30T05:15:55;11.60;;;5.40;;
10979;SDS011;5543;51.734;8.744;2022-11-30T05:18:25;9.10;;;4.13;;
10979;SDS011;5543;51.734;8.744;2022-11-30T05:20:54;12.90;;;5.15;;
10979;SDS011;5543;51.734;8.744;2022-11-30T05:23:22;7.97;;;3.95;;
10979;SDS011;5543;51.734;8.744;2022-11-30T05:25:50;6.50;;;4.50;;
10979;SDS011;5543;51.734;8.744;2022-11-30T05:28:18;12.60;;;4.60;;
10979;SDS011;5543;51.734;8.744;2022-11-30T05:30:47;8.50;;;4.07;;
10979;SDS011;5543;51.734;8.744;2022-11-30T05:33:15;8.77;;;4.15;;
10979;SDS011;5543;51.734;8.744;2022-11-30T05:35:44;8.80;;;4.07;;
10979;SDS011;5543;51.734;8.744;2022-11-30T05:38:12;11.38;;;3.88;;
10979;SDS011;5543;51.734;8.744;2022-11-30T05:40:43;11.52;;;4.38;;
10979;SDS011;5543;51.734;8.744;2022-11-30T05:43:11;13.10;;;4.55;;
10979;SDS011;5543;51.734;8.744;2022-11-30T05:45:39;8.68;;;4.60;;
10979;SDS011;5543;51.734;8.744;2022-11-30T05:48:07;11.75;;;5.90;;
10979;SDS011;5543;51.734;8.744;2022-11-30T05:50:36;13.68;;;5.57;;
10979;SDS011;5543;51.734;8.744;2022-11-30T05:53:05;11.32;;;5.40;;
10979;SDS011;5543;51.734;8.744;2022-11-30T05:55:34;14.18;;;6.22;;
10979;SDS011;5543;51.734;8.744;2022-11-30T05:58:02;11.75;;;4.78;;
10979;SDS011;5543;51.734;8.744;2022-11-30T06:00:30;15.27;;;4.88;;
10979;SDS011;5543;51.734;8.744;2022-11-30T06:02:58;15.05;;;5.47;;
10979;SDS011;5543;51.734;8.744;2022-11-30T06:05:32;15.95;;;5.22;;
10979;SDS011;5543;51.734;8.744;2022-11-30T06:08:01;13.05;;;5.40;;
10979;SDS011;5543;51.734;8.744;2022-11-30T06:10:30;14.00;;;6.15;;
10979;SDS011;5543;51.734;8.744;2022-11-30T06:13:02;13.35;;;5.35;;
10979;SDS011;5543;51.734;8.744;2022-11-30T06:15:33;14.55;;;5.88;;
10979;SDS011;5543;51.734;8.744;2022-11-30T06:18:01;17.73;;;6.00;;
10979;SDS011;5543;51.734;8.744;2022-11-30T06:20:29;19.60;;;5.70;;
10979;SDS011;5543;51.734;8.744;2022-11-30T06:22:57;10.18;;;5.18;;
10979;SDS011;5543;51.734;8.744;2022-11-30T06:25:26;10.38;;;4.72;;
10979;SDS011;5543;51.734;8.744;2022-11-30T06:27:55;11.38;;;5.75;;
10979;SDS011;5543;51.734;8.744;2022-11-30T06:30:23;11.25;;;4.82;;
10979;SDS011;5543;51.734;8.744;2022-11-30T06:32:52;13.13;;;6.03;;
10979;SDS011;5543;51.734;8.744;2022-11-30T06:35:20;7.80;;;4.65;;
10979;SDS011;5543;51.734;8.744;2022-11-30T06:37:48;12.98;;;4.65;;
10979;SDS011;5543;51.734;8.744;2022-11-30T06:40:16;17.73;;;6.30;;
10979;SDS011;5543;51.734;8.744;2022-11-30T06:42:44;14.75;;;5.80;;
10979;SDS011;5543;51.734;8.744;2022-11-30T06:45:14;7.57;;;4.93;;
10979;SDS011;5543;51.734;8.744;2022-11-30T06:47:42;13.10;;;5.18;;
10979;SDS011;5543;51.734;8.744;2022-11-30T06:50:11;14.45;;;6.03;;
10979;SDS011;5543;51.734;8.744;2022-11-30T06:52:40;9.20;;;4.80;;
10979;SDS011;5543;51.734;8.744;2022-11-30T06:55:08;11.80;;;4.85;;
10979;SDS011;5543;51.734;8.744;2022-11-30T06:57:37;9.93;;;4.25;;
10979;SDS011;5543;51.734;8.744;2022-11-30T07:00:05;15.30;;;5.75;;
10979;SDS011;5543;51.734;8.744;2022-11-30T07:02:36;12.15;;;4.50;;
10979;SDS011;5543;51.734;8.744;2022-11-30T07:05:04;17.30;;;5.13;;
10979;SDS011;5543;51.734;8.744;2022-11-30T07:07:33;13.73;;;4.40;;
10979;SDS011;5543;51.734;8.744;2022-11-30T07:10:02;11.27;;;4.10;;
10979;SDS011;5543;51.734;8.744;2022-11-30T07:12:33;12.70;;;5.68;;
10979;SDS011;5543;51.734;8.744;2022-11-30T07:15:01;11.05;;;5.18;;
10979;SDS011;5543;51.734;8.744;2022-11-30T07:17:30;11.75;;;5.30;;
10979;SDS011;5543;51.734;8.744;2022-11-30T07:19:59;12.30;;;4.63;;
10979;SDS011;5543;51.734;8.744;2022-11-30T07:22:28;8.88;;;3.80;;
10979;SDS011;5543;51.734;8.744;2022-11-30T07:24:56;13.98;;;5.22;;
10979;SDS011;5543;51.734;8.744;2022-11-30T07:27:41;11.82;;;5.38;;
10979;SDS011;5543;51.734;8.744;2022-11-30T07:30:10;13.35;;;5.18;;
10979;SDS011;5543;51.734;8.744;2022-11-30T07:32:38;15.93;;;5.43;;
10979;SDS011;5543;51.734;8.744;2022-11-30T07:35:08;15.07;;;5.60;;
10979;SDS011;5543;51.734;8.744;2022-11-30T07:37:36;10.32;;;4.43;;
10979;SDS011;5543;51.734;8.744;2022-11-30T07:40:05;9.00;;;3.88;;
10979;SDS011;5543;51.734;8.744;2022-11-30T07:42:34;12.50;;;4.28;;
10979;SDS011;5543;51.734;8.744;2022-11-30T07:45:03;12.98;;;4.97;;
10979;SDS011;5543;51.734;8.744;2022-11-30T07:47:31;13.57;;;5.43;;
10979;SDS011;5543;51.734;8.744;2022-11-30T07:50:00;8.10;;;3.92;;
10979;SDS011;5543;51.734;8.744;2022-11-30T07:52:30;14.35;;;6.00;;
10979;SDS011;5543;51.734;8.744;2022-11-30T07:54:58;10.55;;;4.40;;
10979;SDS011;5543;51.734;8.744;2022-11-30T07:57:26;11.57;;;4.80;;
10979;SDS011;5543;51.734;8.744;2022-11-30T07:59:54;11.48;;;5.35;;
10979;SDS011;5543;51.734;8.744;2022-11-30T08:02:22;16.92;;;6.55;;
10979;SDS011;5543;51.734;8.744;2022-11-30T08:04:50;11.73;;;4.55;;
10979;SDS011;5543;51.734;8.744;2022-11-30T08:07:20;10.77;;;4.78;;
10979;SDS011;5543;51.734;8.744;2022-11-30T08:09:50;10.10;;;4.50;;
10979;SDS011;5543;51.734;8.744;2022-11-30T08:12:18;11.77;;;4.18;;
10979;SDS011;5543;51.734;8.744;2022-11-30T08:14:46;13.02;;;4.32;;
10979;SDS011;5543;51.734;8.744;2022-11-30T08:17:34;11.80;;;4.28;;
10979;SDS011;5543;51.734;8.744;2022-11-30T08:20:03;11.35;;;3.53;;
10979;SDS011;5543;51.734;8.744;2022-11-30T08:22:32;11.07;;;4.32;;
10979;SDS011;5543;51.734;8.744;2022-11-30T08:25:01;11.40;;;3.75;;
10979;SDS011;5543;51.734;8.744;2022-11-30T08:27:30;8.00;;;4.43;;
10979;SDS011;5543;51.734;8.744;2022-11-30T08:29:59;9.93;;;3.67;;
10979;SDS011;5543;51.734;8.744;2022-11-30T08:32:27;7.18;;;4.07;;
10979;SDS011;5543;51.734;8.744;2022-11-30T08:34:55;8.98;;;3.60;;
10979;SDS011;5543;51.734;8.744;2022-11-30T08:37:23;12.63;;;3.80;;
10979;SDS011;5543;51.734;8.744;2022-11-30T08:39:51;8.43;;;3.63;;
10979;SDS011;5543;51.734;8.744;2022-11-30T08:42:20;9.73;;;4.50;;
10979;SDS011;5543;51.734;8.744;2022-11-30T08:44:49;11.35;;;3.95;;
10979;SDS011;5543;51.734;8.744;2022-11-30T08:47:17;10.13;;;4.25;;
10979;SDS011;5543;51.734;8.744;2022-11-30T08:49:45;8.80;;;3.28;;
10979;SDS011;5543;51.734;8.744;2022-11-30T08:52:13;5.45;;;3.33;;
10979;SDS011;5543;51.734;8.744;2022-11-30T08:54:44;15.90;;;4.90;;
10979;SDS011;5543;51.734;8.744;2022-11-30T08:57:14;8.60;;;3.47;;
10979;SDS011;5543;51.734;8.744;2022-11-30T08:59:45;7.18;;;3.50;;
10979;SDS011;5543;51.734;8.744;2022-11-30T09:02:14;6.13;;;3.25;;
10979;SDS011;5543;51.734;8.744;2022-11-30T09:04:45;10.02;;;4.47;;
10979;SDS011;5543;51.734;8.744;2022-11-30T09:07:16;8.05;;;3.65;;
10979;SDS011;5543;51.734;8.744;2022-11-30T09:09:45;7.90;;;3.72;;
10979;SDS011;5543;51.734;8.744;2022-11-30T09:12:13;6.05;;;2.90;;
10979;SDS011;5543;51.734;8.744;2022-11-30T09:14:41;9.57;;;4.45;;
10979;SDS011;5543;51.734;8.744;2022-11-30T09:17:13;6.95;;;3.85;;
10979;SDS011;5543;51.734;8.744;2022-11-30T09:19:41;7.32;;;3.72;;
10979;SDS011;5543;51.734;8.744;2022-11-30T09:22:09;8.52;;;4.35;;
10979;SDS011;5543;51.734;8.744;2022-11-30T09:24:38;8.40;;;4.32;;
10979;SDS011;5543;51.734;8.744;2022-11-30T09:27:06;10.68;;;4.35;;
10979;SDS011;5543;51.734;8.744;2022-11-30T09:29:34;7.10;;;4.30;;
10979;SDS011;5543;51.734;8.744;2022-11-30T09:32:03;4.85;;;3.08;;
10979;SDS011;5543;51.734;8.744;2022-11-30T09:34:33;5.05;;;3.10;;
10979;SDS011;5543;51.734;8.744;2022-11-30T09:37:01;7.47;;;3.95;;
10979;SDS011;5543;51.734;8.744;2022-11-30T09:39:29;6.47;;;3.00;;
10979;SDS011;5543;51.734;8.744;2022-11-30T09:42:05;5.80;;;3.45;;
10979;SDS011;5543;51.734;8.744;2022-11-30T09:44:52;6.90;;;2.75;;
10979;SDS011;5543;51.734;8.744;2022-11-30T09:47:31;7.45;;;3.85;;
10979;SDS011;5543;51.734;8.744;2022-11-30T09:50:13;7.95;;;2.55;;
10979;SDS011;5543;51.734;8.744;2022-11-30T09:52:43;6.90;;;3.03;;
10979;SDS011;5543;51.734;8.744;2022-11-30T09:55:16;7.47;;;3.30;;
10979;SDS011;5543;51.734;8.744;2022-11-30T09:57:52;6.90;;;3.97;;
10979;SDS011;5543;51.734;8.744;2022-11-30T10:00:23;8.85;;;2.97;;
10979;SDS011;5543;51.734;8.744;2022-11-30T10:02:52;7.65;;;4.20;;
10979;SDS011;5543;51.734;8.744;2022-11-30T10:05:24;4.70;;;2.95;;
10979;SDS011;5543;51.734;8.744;2022-11-30T10:07:59;6.18;;;3.28;;
10979;SDS011;5543;51.734;8.744;2022-11-30T10:10:45;7.80;;;3.38;;
10979;SDS011;5543;51.734;8.744;2022-11-30T10:13:26;7.53;;;3.95;;
10979;SDS011;5543;51.734;8.744;2022-11-30T10:16:10;8.60;;;2.63;;
10979;SDS011;5543;51.734;8.744;2022-11-30T10:18:50;8.60;;;4.50;;
10979;SDS011;5543;51.734;8.744;2022-11-30T10:21:31;5.10;;;2.75;;
10979;SDS011;5543;51.734;8.744;2022-11-30T10:24:14;5.55;;;3.35;;
10979;SDS011;5543;51.734;8.744;2022-11-30T10:26:52;5.57;;;3.28;;
10979;SDS011;5543;51.734;8.744;2022-11-30T10:29:24;6.90;;;3.30;;
10979;SDS011;5543;51.734;8.744;2022-11-30T10:31:58;5.63;;;3.45;;
10979;SDS011;5543;51.734;8.744;2022-11-30T10:34:29;7.35;;;3.38;;
10979;SDS011;5543;51.734;8.744;2022-11-30T10:37:02;8.70;;;3.90;;
10979;SDS011;5543;51.734;8.744;2022-11-30T10:39:39;6.57;;;3.67;;
10979;SDS011;5543;51.734;8.744;2022-11-30T10:42:13;7.18;;;3.42;;
10979;SDS011;5543;51.734;8.744;2022-11-30T10:44:48;10.38;;;3.00;;
10979;SDS011;5543;51.734;8.744;2022-11-30T10:47:27;8.45;;;3.72;;
10979;SDS011;5543;51.734;8.744;2022-11-30T10:49:59;7.07;;;3.10;;
10979;SDS011;5543;51.734;8.744;2022-11-30T10:52:29;11.73;;;4.00;;
10979;SDS011;5543;51.734;8.744;2022-11-30T10:55:02;4.95;;;2.78;;
10979;SDS011;5543;51.734;8.744;2022-11-30T10:57:39;10.80;;;3.75;;
10979;SDS011;5543;51.734;8.744;2022-11-30T11:00:11;9.30;;;4.35;;
10979;SDS011;5543;51.734;8.744;2022-11-30T11:02:43;6.32;;;3.33;;
10979;SDS011;5543;51.734;8.744;2022-11-30T11:05:14;5.85;;;3.13;;
10979;SDS011;5543;51.734;8.744;2022-11-30T11:07:48;6.13;;;2.80;;
10979;SDS011;5543;51.734;8.744;2022-11-30T11:10:20;5.85;;;3.58;;
10979;SDS011;5543;51.734;8.744;2022-11-30T11:12:54;5.00;;;3.15;;
10979;SDS011;5543;51.734;8.744;2022-11-30T11:15:23;8.30;;;3.30;;
10979;SDS011;5543;51.734;8.744;2022-11-30T11:17:53;5.03;;;3.13;;
10979;SDS011;5543;51.734;8.744;2022-11-30T11:20:45;4.95;;;2.92;;
10979;SDS011;5543;51.734;8.744;2022-11-30T11:23:23;6.90;;;3.95;;
10979;SDS011;5543;51.734;8.744;2022-11-30T11:25:59;6.72;;;3.08;;
10979;SDS011;5543;51.734;8.744;2022-11-30T11:28:27;5.03;;;2.78;;
10979;SDS011;5543;51.734;8.744;2022-11-30T11:30:58;4.95;;;2.67;;
10979;SDS011;5543;51.734;8.744;2022-11-30T11:33:27;7.45;;;3.35;;
10979;SDS011;5543;51.734;8.744;2022-11-30T11:36:11;5.50;;;3.13;;
10979;SDS011;5543;51.734;8.744;2022-11-30T11:38:42;6.90;;;3.75;;
10979;SDS011;5543;51.734;8.744;2022-11-30T11:41:14;4.93;;;2.45;;
10979;SDS011;5543;51.734;8.744;2022-11-30T11:44:00;5.57;;;2.65;;
10979;SDS011;5543;51.734;8.744;2022-11-30T11:46:31;5.05;;;2.58;;
10979;SDS011;5543;51.734;8.744;2022-11-30T11:49:02;6.72;;;2.85;;
10979;SDS011;5543;51.734;8.744;2022-11-30T11:51:32;5.45;;;2.50;;
10979;SDS011;5543;51.734;8.744;2022-11-30T11:54:04;2.72;;;2.08;;
10979;SDS011;5543;51.734;8.744;2022-11-30T11:56:42;8.02;;;2.60;;
10979;SDS011;5543;51.734;8.744;2022-11-30T11:59:12;4.72;;;2.20;;
10979;SDS011;5543;51.734;8.744;2022-11-30T12:01:47;5.22;;;3.10;;
10979;SDS011;5543;51.734;8.744;2022-11-30T12:07:11;5.00;;;2.97;;
10979;SDS011;5543;51.734;8.744;2022-11-30T12:09:52;3.38;;;2.28;;
10979;SDS011;5543;51.734;8.744;2022-11-30T12:12:26;3.42;;;2.53;;
10979;SDS011;5543;51.734;8.744;2022-11-30T12:14:54;3.95;;;2.58;;
10979;SDS011;5543;51.734;8.744;2022-11-30T12:17:30;4.10;;;2.05;;
10979;SDS011;5543;51.734;8.744;2022-11-30T12:20:10;5.00;;;2.30;;
10979;SDS011;5543;51.734;8.744;2022-11-30T12:22:49;5.68;;;2.60;;
10979;SDS011;5543;51.734;8.744;2022-11-30T12:25:28;6.05;;;2.38;;
10979;SDS011;5543;51.734;8.744;2022-11-30T12:28:05;4.13;;;3.05;;
10979;SDS011;5543;51.734;8.744;2022-11-30T12:30:45;3.38;;;1.67;;
10979;SDS011;5543;51.734;8.744;2022-11-30T12:33:29;3.42;;;2.45;;
10979;SDS011;5543;51.734;8.744;2022-11-30T12:36:09;6.80;;;2.70;;
10979;SDS011;5543;51.734;8.744;2022-11-30T12:38:44;3.25;;;1.95;;
10979;SDS011;5543;51.734;8.744;2022-11-30T12:41:21;5.40;;;2.33;;
10979;SDS011;5543;51.734;8.744;2022-11-30T12:44:02;5.07;;;2.70;;
10979;SDS011;5543;51.734;8.744;2022-11-30T12:46:55;4.10;;;2.30;;
10979;SDS011;5543;51.734;8.744;2022-11-30T12:49:32;5.28;;;2.33;;
10979;SDS011;5543;51.734;8.744;2022-11-30T12:52:15;3.55;;;2.10;;
10979;SDS011;5543;51.734;8.744;2022-11-30T12:54:54;3.95;;;2.13;;
10979;SDS011;5543;51.734;8.744;2022-11-30T12:57:35;4.80;;;2.65;;
10979;SDS011;5543;51.734;8.744;2022-11-30T13:00:11;3.38;;;1.60;;
10979;SDS011;5543;51.734;8.744;2022-11-30T13:03:02;2.33;;;1.60;;
10979;SDS011;5543;51.734;8.744;2022-11-30T13:05:44;3.03;;;1.80;;
10979;SDS011;5543;51.734;8.744;2022-11-30T13:08:17;3.38;;;1.85;;
10979;SDS011;5543;51.734;8.744;2022-11-30T13:10:50;4.03;;;2.25;;
10979;SDS011;5543;51.734;8.744;2022-11-30T13:13:24;5.63;;;2.42;;
10979;SDS011;5543;51.734;8.744;2022-11-30T13:15:55;3.80;;;2.55;;
10979;SDS011;5543;51.734;8.744;2022-11-30T13:18:25;4.25;;;1.98;;
10979;SDS011;5543;51.734;8.744;2022-11-30T13:20:54;3.83;;;2.45;;
10979;SDS011;5543;51.734;8.744;2022-11-30T13:23:33;2.90;;;1.80;;
10979;SDS011;5543;51.734;8.744;2022-11-30T13:26:07;4.30;;;2.42;;
10979;SDS011;5543;51.734;8.744;2022-11-30T13:28:56;4.18;;;1.88;;
10979;SDS011;5543;51.734;8.744;2022-11-30T13:31:40;5.47;;;2.42;;
10979;SDS011;5543;51.734;8.744;2022-11-30T13:34:21;3.35;;;2.38;;
10979;SDS011;5543;51.734;8.744;2022-11-30T13:36:53;3.22;;;2.10;;
10979;SDS011;5543;51.734;8.744;2022-11-30T13:39:29;4.95;;;2.42;;
10979;SDS011;5543;51.734;8.744;2022-11-30T13:42:23;4.18;;;2.17;;
10979;SDS011;5543;51.734;8.744;2022-11-30T13:47:53;2.92;;;1.83;;
10979;SDS011;5543;51.734;8.744;2022-11-30T13:50:23;2.08;;;1.88;;
10979;SDS011;5543;51.734;8.744;2022-11-30T13:56:00;3.20;;;1.90;;
10979;SDS011;5543;51.734;8.744;2022-11-30T13:58:31;3.45;;;1.80;;
10979;SDS011;5543;51.734;8.744;2022-11-30T14:06:49;2.70;;;1.30;;
10979;SDS011;5543;51.734;8.744;2022-11-30T14:15:26;1.73;;;1.20;;
10979;SDS011;5543;51.734;8.744;2022-11-30T14:18:15;2.15;;;1.70;;
10979;SDS011;5543;51.734;8.744;2022-11-30T14:20:49;5.30;;;2.72;;
10979;SDS011;5543;51.734;8.744;2022-11-30T14:23:21;4.03;;;2.00;;
10979;SDS011;5543;51.734;8.744;2022-11-30T14:25:54;3.00;;;1.90;;
10979;SDS011;5543;51.734;8.744;2022-11-30T14:28:30;4.03;;;2.20;;
10979;SDS011;5543;51.734;8.744;2022-11-30T14:31:04;4.15;;;2.40;;
10979;SDS011;5543;51.734;8.744;2022-11-30T14:33:40;4.85;;;2.55;;
10979;SDS011;5543;51.734;8.744;2022-11-30T14:36:12;6.22;;;3.08;;
10979;SDS011;5543;51.734;8.744;2022-11-30T14:38:41;7.80;;;2.42;;
10979;SDS011;5543;51.734;8.744;2022-11-30T14:41:19;5.95;;;3.10;;
10979;SDS011;5543;51.734;8.744;2022-11-30T14:44:02;9.50;;;3.42;;
10979;SDS011;5543;51.734;8.744;2022-11-30T14:46:32;7.00;;;3.85;;
10979;SDS011;5543;51.734;8.744;2022-11-30T14:51:51;5.18;;;2.90;;
10979;SDS011;5543;51.734;8.744;2022-11-30T14:54:23;5.63;;;2.70;;
10979;SDS011;5543;51.734;8.744;2022-11-30T14:57:07;5.22;;;3.05;;
10979;SDS011;5543;51.734;8.744;2022-11-30T14:59:44;4.07;;;2.60;;
10979;SDS011;5543;51.734;8.744;2022-11-30T15:02:20;4.72;;;2.85;;
10979;SDS011;5543;51.734;8.744;2022-11-30T15:04:56;5.88;;;2.65;;
10979;SDS011;5543;51.734;8.744;2022-11-30T15:07:26;7.55;;;2.88;;
10979;SDS011;5543;51.734;8.744;2022-11-30T15:09:58;5.88;;;3.30;;
10979;SDS011;5543;51.734;8.744;2022-11-30T15:12:30;6.28;;;3.35;;
10979;SDS011;5543;51.734;8.744;2022-11-30T15:14:59;7.00;;;3.15;;
10979;SDS011;5543;51.734;8.744;2022-11-30T15:17:29;6.50;;;3.05;;
10979;SDS011;5543;51.734;8.744;2022-11-30T15:19:59;4.80;;;2.92;;
10979;SDS011;5543;51.734;8.744;2022-11-30T15:22:27;6.28;;;3.10;;
10979;SDS011;5543;51.734;8.744;2022-11-30T15:25:00;5.78;;;3.08;;
10979;SDS011;5543;51.734;8.744;2022-11-30T15:27:28;7.13;;;3.85;;
10979;SDS011;5543;51.734;8.744;2022-11-30T15:29:57;5.47;;;3.10;;
10979;SDS011;5543;51.734;8.744;2022-11-30T15:32:27;6.78;;;3.63;;
10979;SDS011;5543;51.734;8.744;2022-11-30T15:34:56;4.97;;;3.08;;
10979;SDS011;5543;51.734;8.744;2022-11-30T15:37:30;6.28;;;3.13;;
10979;SDS011;5543;51.734;8.744;2022-11-30T15:40:01;4.22;;;2.85;;
10979;SDS011;5543;51.734;8.744;2022-11-30T15:42:32;6.63;;;3.65;;
10979;SDS011;5543;51.734;8.744;2022-11-30T15:45:08;4.10;;;2.80;;